createdAt,value
2019-05-14T00:03:13.884Z,2.17
2019-05-14T00:06:37.051Z,3.00
2019-05-14T00:10:01.178Z,1.97
2019-05-14T00:13:24.062Z,1.93
2019-05-14T00:16:11.867Z,2.07
2019-05-14T00:19:05.877Z,2.33
2019-05-14T00:22:38.093Z,1.80
2019-05-14T00:25:34.403Z,2.27
2019-05-14T00:28:31.529Z,2.40
2019-05-14T00:31:23.262Z,2.70
2019-05-14T00:34:15.010Z,3.43
2019-05-14T00:37:13.919Z,2.93
2019-05-14T00:40:11.577Z,3.77
2019-05-14T00:43:07.187Z,2.60
2019-05-14T00:45:52.773Z,3.73
2019-05-14T00:48:48.680Z,4.57
2019-05-14T00:51:44.214Z,3.50
2019-05-14T00:54:42.790Z,3.80
2019-05-14T00:57:28.402Z,2.80
2019-05-14T01:00:13.980Z,3.50
2019-05-14T01:03:11.108Z,3.70
2019-05-14T01:05:56.991Z,3.60
2019-05-14T01:08:52.224Z,2.63
2019-05-14T01:11:51.304Z,4.40
2019-05-14T01:14:44.129Z,3.27
2019-05-14T01:17:41.993Z,3.50
2019-05-14T01:20:32.738Z,3.30
2019-05-14T01:23:25.179Z,2.67
2019-05-14T01:26:11.479Z,3.20
2019-05-14T01:28:57.640Z,3.00
2019-05-14T01:31:56.848Z,2.90
2019-05-14T01:34:42.386Z,3.30
2019-05-14T01:37:41.795Z,3.30
2019-05-14T01:40:34.195Z,3.40
2019-05-14T01:43:27.675Z,2.63
2019-05-14T01:46:24.524Z,3.20
2019-05-14T01:49:23.888Z,2.83
2019-05-14T01:52:11.190Z,3.50
2019-05-14T01:55:07.622Z,2.97
2019-05-14T01:58:11.349Z,3.37
2019-05-14T02:01:03.402Z,3.07
2019-05-14T02:03:55.285Z,3.47
2019-05-14T02:06:57.277Z,3.27
2019-05-14T02:09:42.843Z,2.43
2019-05-14T02:12:42.433Z,3.23
2019-05-14T02:15:39.262Z,3.13
2019-05-14T02:18:26.090Z,3.03
2019-05-14T02:21:11.930Z,2.60
2019-05-14T02:24:07.426Z,2.50
2019-05-14T02:27:06.456Z,2.63
2019-05-14T02:30:05.240Z,2.73
2019-05-14T02:33:10.047Z,2.40
2019-05-14T02:35:55.693Z,2.67
2019-05-14T02:38:54.579Z,2.90
2019-05-14T02:41:49.630Z,2.90
2019-05-14T02:44:49.020Z,3.10
2019-05-14T02:47:40.138Z,2.87
2019-05-14T02:50:39.571Z,3.17
2019-05-14T02:53:25.844Z,3.20
2019-05-14T02:56:24.562Z,3.17
2019-05-14T02:59:20.210Z,2.90
2019-05-14T03:02:19.151Z,2.97
2019-05-14T03:05:19.178Z,2.80
2019-05-14T03:08:05.081Z,2.67
2019-05-14T03:11:04.754Z,3.53
2019-05-14T03:14:03.434Z,3.30
2019-05-14T03:16:49.734Z,2.50
2019-05-14T03:19:42.609Z,3.90
2019-05-14T03:22:46.729Z,3.00
2019-05-14T03:25:22.216Z,2.60
2019-05-14T03:28:21.540Z,2.63
2019-05-14T03:31:14.723Z,4.03
2019-05-14T03:34:03.191Z,3.20
2019-05-14T03:36:52.822Z,3.73
2019-05-14T03:39:40.621Z,2.83
2019-05-14T03:42:19.410Z,3.73
2019-05-14T03:45:12.258Z,3.10
2019-05-14T03:47:58.913Z,2.93
2019-05-14T03:50:49.361Z,2.20
2019-05-14T03:54:00.603Z,2.37
2019-05-14T03:56:41.019Z,3.27
2019-05-14T03:59:29.145Z,2.50
2019-05-14T04:02:21.687Z,2.90
2019-05-14T04:05:22.637Z,2.40
2019-05-14T04:08:12.455Z,11.87
2019-05-14T04:10:59.147Z,10.83
2019-05-14T04:13:51.719Z,10.20
2019-05-14T04:16:39.832Z,5.93
2019-05-14T04:19:35.089Z,5.80
2019-05-14T04:22:39.319Z,5.13
2019-05-14T04:25:24.962Z,3.80
2019-05-14T04:28:24.704Z,4.93
2019-05-14T04:31:15.217Z,6.73
2019-05-14T04:34:14.556Z,7.57
2019-05-14T04:37:11.548Z,7.03
2019-05-14T04:40:13.305Z,3.47
2019-05-14T04:43:10.226Z,3.83
2019-05-14T04:46:10.029Z,3.23
2019-05-14T04:49:00.856Z,3.30
2019-05-14T04:51:49.951Z,3.77
2019-05-14T04:54:49.617Z,4.60
2019-05-14T04:57:44.360Z,3.53
2019-05-14T05:00:30.769Z,3.03
2019-05-14T05:03:26.126Z,5.60
2019-05-14T05:06:19.194Z,13.33
2019-05-14T05:09:20.078Z,10.47
2019-05-14T05:12:19.824Z,7.67
2019-05-14T05:15:19.799Z,5.07
2019-05-14T05:18:19.372Z,4.90
2019-05-14T05:21:18.989Z,5.50
2019-05-14T05:24:18.438Z,4.60
2019-05-14T05:27:14.184Z,2.77
2019-05-14T05:30:08.526Z,2.60
2019-05-14T05:32:54.115Z,2.60
2019-05-14T05:35:49.488Z,2.60
2019-05-14T05:38:43.510Z,3.20
2019-05-14T05:41:34.887Z,2.30
2019-05-14T05:44:28.748Z,2.37
2019-05-14T05:47:30.776Z,2.60
2019-05-14T05:50:16.116Z,2.73
2019-05-14T05:53:15.060Z,2.43
2019-05-14T05:56:08.945Z,2.90
2019-05-14T05:59:04.551Z,3.50
2019-05-14T06:02:03.009Z,2.47
2019-05-14T06:04:49.901Z,2.40
2019-05-14T06:07:45.414Z,2.67
2019-05-14T06:10:31.074Z,5.27
2019-05-14T06:13:29.507Z,6.57
2019-05-14T06:16:14.986Z,6.57
2019-05-14T06:19:08.258Z,6.00
2019-05-14T06:22:09.587Z,6.37
2019-05-14T06:24:54.032Z,4.93
2019-05-14T06:27:58.913Z,6.27
2019-05-14T06:30:50.504Z,6.43
2019-05-14T06:33:35.903Z,6.10
2019-05-14T06:36:31.712Z,6.40
2019-05-14T06:39:33.538Z,5.17
2019-05-14T06:42:19.489Z,5.97
2019-05-14T06:45:05.338Z,6.07
2019-05-14T06:47:50.832Z,5.20
2019-05-14T06:50:53.262Z,5.07
2019-05-14T06:53:44.843Z,5.67
2019-05-14T06:56:41.332Z,6.10
2019-05-14T06:59:37.916Z,5.13
2019-05-14T07:02:08.689Z,4.67
2019-05-14T07:04:39.614Z,4.27
2019-05-14T07:07:09.896Z,5.43
2019-05-14T07:09:40.026Z,3.80
2019-05-14T07:12:10.210Z,6.00
2019-05-14T07:14:40.320Z,5.73
2019-05-14T07:17:10.573Z,6.43
2019-05-14T07:19:40.764Z,5.70
2019-05-14T07:22:11.404Z,5.40
2019-05-14T07:24:41.527Z,6.40
2019-05-14T07:27:11.771Z,6.30
2019-05-14T07:29:41.904Z,5.50
2019-05-14T07:32:12.396Z,6.97
2019-05-14T07:34:42.565Z,5.40
2019-05-14T07:37:12.715Z,6.00
2019-05-14T07:39:42.771Z,5.47
2019-05-14T07:42:12.840Z,5.57
2019-05-14T07:44:43.464Z,5.33
2019-05-14T07:47:13.519Z,5.60
2019-05-14T07:49:43.890Z,6.00
2019-05-14T07:52:14.238Z,6.07
2019-05-14T07:54:44.343Z,5.80
2019-05-14T07:57:14.432Z,6.03
2019-05-14T07:59:44.671Z,5.40
2019-05-14T08:02:14.784Z,5.53
2019-05-14T08:04:44.857Z,5.53
2019-05-14T08:07:17.822Z,5.80
2019-05-14T08:09:47.959Z,5.20
2019-05-14T08:12:19.261Z,5.50
2019-05-14T08:15:10.185Z,5.00
2019-05-14T08:17:21.228Z,5.17
2019-05-14T08:19:51.309Z,5.50
2019-05-14T08:22:21.660Z,3.53
2019-05-14T08:24:51.721Z,4.30
2019-05-14T08:27:21.908Z,5.27
2019-05-14T08:29:52.051Z,4.57
2019-05-14T08:32:22.107Z,3.77
2019-05-14T08:34:52.450Z,4.10
2019-05-14T08:37:22.553Z,4.37
2019-05-14T08:39:52.577Z,3.93
2019-05-14T08:42:22.996Z,4.50
2019-05-14T08:44:53.007Z,3.37
2019-05-14T08:47:23.684Z,3.30
2019-05-14T08:49:53.937Z,3.40
2019-05-14T08:52:24.029Z,3.67
2019-05-14T08:55:07.144Z,3.60
2019-05-14T08:57:26.155Z,3.60
2019-05-14T08:59:59.306Z,3.47
2019-05-14T09:02:29.627Z,2.77
2019-05-14T09:05:03.819Z,3.10
2019-05-14T09:07:31.882Z,3.60
2019-05-14T09:10:01.914Z,3.90
2019-05-14T09:12:32.019Z,4.07
2019-05-14T09:15:02.273Z,3.13
2019-05-14T09:17:32.351Z,2.97
2019-05-14T09:20:06.982Z,3.60
2019-05-14T09:22:34.073Z,3.63
2019-05-14T09:25:04.291Z,3.53
2019-05-14T09:27:34.422Z,4.17
2019-05-14T09:30:05.801Z,3.63
2019-05-14T09:32:38.828Z,3.73
2019-05-14T09:35:09.763Z,3.77
2019-05-14T09:37:40.340Z,3.63
2019-05-14T09:40:10.480Z,4.00
2019-05-14T09:42:40.633Z,3.77
2019-05-14T09:45:11.777Z,3.23
2019-05-14T09:47:42.152Z,3.97
2019-05-14T09:50:19.356Z,4.20
2019-05-14T09:52:44.196Z,4.40
2019-05-14T09:55:14.446Z,3.63
2019-05-14T09:57:44.564Z,4.20
2019-05-14T10:00:15.526Z,3.10
2019-05-14T10:02:48.881Z,3.83
2019-05-14T10:05:19.463Z,3.53
2019-05-14T10:07:49.771Z,3.40
2019-05-14T10:10:20.205Z,4.63
2019-05-14T10:12:56.261Z,3.67
2019-05-14T10:15:22.355Z,3.80
2019-05-14T10:17:52.736Z,4.13
2019-05-14T10:20:36.558Z,3.60
2019-05-14T10:22:54.918Z,3.63
2019-05-14T10:25:25.217Z,3.13
2019-05-14T10:27:55.580Z,3.70
2019-05-14T10:30:25.801Z,3.70
2019-05-14T10:33:07.072Z,3.57
2019-05-14T10:35:28.642Z,3.80
2019-05-14T10:37:59.801Z,3.70
2019-05-14T10:40:30.368Z,4.50
2019-05-14T10:43:01.938Z,3.60
2019-05-14T10:45:32.148Z,4.57
2019-05-14T10:48:02.911Z,3.13
2019-05-14T10:50:33.036Z,3.30
2019-05-14T10:53:03.976Z,3.87
2019-05-14T10:55:34.084Z,4.00
2019-05-14T10:58:04.538Z,2.70
2019-05-14T11:00:34.784Z,2.90
2019-05-14T11:03:05.549Z,3.07
2019-05-14T11:05:35.612Z,2.80
2019-05-14T11:08:05.689Z,4.03
2019-05-14T11:10:35.816Z,3.83
2019-05-14T11:13:08.775Z,3.50
2019-05-14T11:15:39.546Z,3.30
2019-05-14T11:18:09.249Z,4.00
2019-05-14T11:20:42.195Z,3.07
2019-05-14T11:23:11.210Z,3.43
2019-05-14T11:25:41.624Z,3.80
2019-05-14T11:28:11.710Z,3.60
2019-05-14T11:30:41.958Z,4.00
2019-05-14T11:33:12.246Z,3.33
2019-05-14T11:35:42.920Z,3.83
2019-05-14T11:38:28.528Z,3.50
2019-05-14T11:40:44.897Z,3.20
2019-05-14T11:43:15.260Z,3.10
2019-05-14T11:45:48.297Z,3.80
2019-05-14T11:48:19.250Z,3.60
2019-05-14T11:50:49.491Z,3.50
2019-05-14T11:53:20.537Z,3.47
2019-05-14T11:55:50.920Z,3.20
2019-05-14T11:58:21.620Z,3.53
2019-05-14T12:00:52.397Z,3.30
2019-05-14T12:03:22.424Z,3.27
2019-05-14T12:05:52.466Z,3.10
2019-05-14T12:08:22.559Z,3.43
2019-05-14T12:10:53.072Z,3.20
2019-05-14T12:13:23.200Z,4.43
2019-05-14T12:15:53.268Z,2.90
2019-05-14T12:18:23.924Z,3.40
2019-05-14T12:20:54.075Z,3.93
2019-05-14T12:23:24.193Z,2.97
2019-05-14T12:25:54.367Z,3.50
2019-05-14T12:28:24.448Z,3.70
2019-05-14T12:30:55.175Z,3.27
2019-05-14T12:33:25.317Z,3.40
2019-05-14T12:35:55.635Z,3.33
2019-05-14T12:38:25.688Z,2.80
2019-05-14T12:40:58.359Z,3.70
2019-05-14T12:43:28.568Z,3.43
2019-05-14T12:45:59.448Z,2.67
2019-05-14T12:48:30.015Z,2.80
2019-05-14T12:51:00.178Z,3.30
2019-05-14T12:53:30.384Z,3.03
2019-05-14T12:56:01.153Z,3.20
2019-05-14T12:58:31.407Z,3.50
2019-05-14T13:01:02.763Z,3.60
2019-05-14T13:03:32.888Z,3.80
2019-05-14T13:06:02.973Z,3.47
2019-05-14T13:08:33.002Z,3.03
2019-05-14T13:11:03.102Z,3.07
2019-05-14T13:13:33.187Z,3.70
2019-05-14T13:16:04.437Z,3.90
2019-05-14T13:18:34.662Z,4.10
2019-05-14T13:21:04.829Z,3.90
2019-05-14T13:23:35.153Z,4.57
2019-05-14T13:26:05.226Z,3.87
2019-05-14T13:28:35.528Z,4.30
2019-05-14T13:31:05.782Z,3.80
2019-05-14T13:33:39.013Z,4.73
2019-05-14T13:36:07.969Z,3.30
2019-05-14T13:38:39.805Z,3.60
2019-05-14T13:41:09.915Z,3.75
2019-05-14T13:43:40.317Z,4.00
2019-05-14T13:46:14.682Z,3.43
2019-05-14T13:48:43.450Z,3.60
2019-05-14T13:51:14.623Z,4.60
2019-05-14T13:53:44.810Z,3.60
2019-05-14T13:56:14.948Z,4.10
2019-05-14T13:58:45.701Z,3.47
2019-05-14T14:01:19.428Z,3.90
2019-05-14T14:04:04.629Z,4.07
2019-05-14T14:06:21.524Z,3.00
2019-05-14T14:08:52.589Z,4.03
2019-05-14T14:11:23.264Z,3.80
2019-05-14T14:13:53.377Z,3.60
2019-05-14T14:16:23.465Z,4.17
2019-05-14T14:18:53.911Z,3.30
2019-05-14T14:21:24.525Z,4.10
2019-05-14T14:23:54.601Z,3.60
2019-05-14T14:26:24.717Z,3.13
2019-05-14T14:28:55.796Z,4.23
2019-05-14T14:31:28.290Z,3.20
2019-05-14T14:33:57.706Z,3.80
2019-05-14T14:36:29.854Z,3.33
2019-05-14T14:38:59.542Z,3.57
2019-05-14T14:41:29.657Z,3.30
2019-05-14T14:43:59.998Z,3.90
2019-05-14T14:46:30.522Z,3.20
2019-05-14T14:49:02.741Z,3.50
2019-05-14T14:51:32.577Z,3.60
2019-05-14T14:54:10.792Z,3.37
2019-05-14T14:56:34.518Z,4.03
2019-05-14T14:59:05.244Z,4.30
2019-05-14T15:01:39.842Z,3.53
2019-05-14T15:04:13.781Z,3.73
2019-05-14T15:06:40.595Z,3.50
2019-05-14T15:09:10.731Z,3.37
2019-05-14T15:11:41.058Z,4.00
2019-05-14T15:14:11.144Z,4.10
2019-05-14T15:16:41.193Z,3.30
2019-05-14T15:19:11.498Z,4.03
2019-05-14T15:21:41.657Z,3.43
2019-05-14T15:24:15.419Z,3.83
2019-05-14T15:26:44.026Z,3.73
2019-05-14T15:29:14.108Z,3.97
2019-05-14T15:31:44.162Z,3.30
2019-05-14T15:34:14.292Z,3.73
2019-05-14T15:36:44.373Z,3.80
2019-05-14T15:39:15.198Z,3.30
2019-05-14T15:41:45.869Z,4.37
2019-05-14T15:44:19.390Z,4.40
2019-05-14T15:46:49.278Z,3.50
2019-05-14T15:49:19.720Z,4.07
2019-05-14T15:51:49.956Z,3.90
2019-05-14T15:54:35.998Z,4.87
2019-05-14T15:56:52.532Z,4.00
2019-05-14T15:59:22.624Z,4.73
2019-05-14T16:01:52.755Z,4.70
2019-05-14T16:04:22.822Z,4.00
2019-05-14T16:06:52.862Z,4.30
2019-05-14T16:09:22.914Z,5.07
2019-05-14T16:11:53.525Z,4.73
2019-05-14T16:14:23.701Z,4.60
2019-05-14T16:16:53.957Z,3.50
2019-05-14T16:19:25.209Z,3.90
2019-05-14T16:21:55.272Z,4.40
2019-05-14T16:24:25.675Z,4.00
2019-05-14T16:27:08.376Z,3.40
2019-05-14T16:29:45.550Z,4.47
2019-05-14T16:32:10.762Z,3.97
2019-05-14T16:34:41.549Z,4.30
2019-05-14T16:37:11.534Z,3.87
2019-05-14T16:39:42.241Z,4.60
2019-05-14T16:42:12.421Z,3.83
2019-05-14T16:44:42.846Z,3.60
2019-05-14T16:47:13.006Z,3.63
2019-05-14T16:49:43.141Z,3.80
2019-05-14T16:52:13.429Z,3.27
2019-05-14T16:54:43.881Z,3.70
2019-05-14T16:57:13.906Z,3.70
2019-05-14T16:59:44.921Z,4.03
2019-05-14T17:02:15.137Z,5.10
2019-05-14T17:04:45.226Z,4.57
2019-05-14T17:07:15.272Z,3.80
2019-05-14T17:09:45.311Z,4.17
2019-05-14T17:12:20.072Z,4.17
2019-05-14T17:14:47.788Z,3.27
2019-05-14T17:17:20.065Z,3.30
2019-05-14T17:19:50.336Z,3.33
2019-05-14T17:22:28.676Z,3.60
2019-05-14T17:24:53.941Z,4.03
2019-05-14T17:27:24.570Z,3.13
2019-05-14T17:29:54.650Z,4.63
2019-05-14T17:32:24.795Z,3.90
2019-05-14T17:34:54.937Z,4.00
2019-05-14T17:37:24.995Z,3.57
2019-05-14T17:39:55.683Z,3.93
2019-05-14T17:42:28.334Z,5.00
2019-05-14T17:44:58.922Z,4.90
2019-05-14T17:47:29.336Z,5.07
2019-05-14T17:49:59.772Z,4.30
2019-05-14T17:52:30.309Z,4.90
2019-05-14T17:55:00.921Z,5.23
2019-05-14T17:57:34.577Z,5.10
2019-05-14T18:00:05.309Z,5.07
2019-05-14T18:02:35.980Z,3.90
2019-05-14T18:05:09.518Z,4.30
2019-05-14T18:07:38.619Z,5.20
2019-05-14T18:10:09.952Z,4.30
2019-05-14T18:12:40.458Z,4.00
2019-05-14T18:15:13.310Z,3.73
2019-05-14T18:17:43.928Z,3.97
2019-05-14T18:20:14.454Z,4.40
2019-05-14T18:22:44.812Z,5.10
2019-05-14T18:25:15.088Z,3.60
2019-05-14T18:27:45.424Z,3.87
2019-05-14T18:30:18.214Z,5.03
2019-05-14T18:32:48.863Z,4.40
2019-05-14T18:35:19.461Z,4.20
2019-05-14T18:37:49.514Z,4.13
2019-05-14T18:40:20.019Z,7.53
2019-05-14T18:42:50.149Z,4.77
2019-05-14T18:45:20.665Z,3.90
2019-05-14T18:47:50.935Z,3.97
2019-05-14T18:50:21.228Z,4.20
2019-05-14T18:52:51.451Z,3.83
2019-05-14T18:55:22.380Z,4.27
2019-05-14T18:57:53.149Z,4.33
2019-05-14T19:00:29.304Z,4.03
2019-05-14T19:02:57.777Z,3.93
2019-05-14T19:05:29.489Z,3.50
2019-05-14T19:07:59.758Z,4.80
2019-05-14T19:10:29.883Z,3.90
2019-05-14T19:13:00.252Z,3.23
2019-05-14T19:15:30.399Z,3.30
2019-05-14T19:18:01.430Z,3.47
2019-05-14T19:20:31.708Z,4.20
2019-05-14T19:23:02.016Z,3.50
2019-05-14T19:25:32.480Z,3.47
2019-05-14T19:28:02.604Z,3.67
2019-05-14T19:30:32.762Z,3.90
2019-05-14T19:33:03.767Z,3.73
2019-05-14T19:35:35.586Z,4.17
2019-05-14T19:38:08.773Z,3.67
2019-05-14T19:40:39.287Z,4.70
2019-05-14T19:43:09.631Z,3.77
2019-05-14T19:45:40.195Z,4.40
2019-05-14T19:48:10.426Z,4.30
2019-05-14T19:50:40.646Z,4.63
2019-05-14T19:53:11.378Z,3.90
2019-05-14T19:55:41.683Z,4.20
2019-05-14T19:58:12.028Z,3.70
2019-05-14T20:00:45.004Z,3.90
2019-05-14T20:03:18.536Z,4.60
2019-05-14T20:05:47.952Z,4.10
2019-05-14T20:08:18.968Z,4.37
2019-05-14T20:10:49.272Z,3.50
2019-05-14T20:13:19.893Z,3.77
2019-05-14T20:15:50.209Z,3.80
2019-05-14T20:18:20.379Z,4.40
2019-05-14T20:20:51.010Z,3.77
2019-05-14T20:23:22.756Z,3.50
2019-05-14T20:25:54.486Z,3.90
2019-05-14T20:28:24.654Z,3.93
2019-05-14T20:30:54.959Z,3.60
2019-05-14T20:33:25.508Z,3.57
2019-05-14T20:35:58.996Z,3.30
2019-05-14T20:38:28.970Z,3.03
2019-05-14T20:40:59.581Z,3.10
2019-05-14T20:43:30.246Z,3.30
2019-05-14T20:46:01.604Z,2.80
2019-05-14T20:48:32.145Z,3.13
2019-05-14T20:51:02.711Z,2.50
2019-05-14T20:53:32.788Z,2.23
2019-05-14T20:56:02.945Z,2.43
2019-05-14T20:58:34.388Z,2.63
2019-05-14T21:01:05.234Z,2.77
2019-05-14T21:03:35.505Z,2.90
2019-05-14T21:06:06.021Z,2.47
2019-05-14T21:08:38.012Z,3.10
2019-05-14T21:11:08.259Z,2.37
2019-05-14T21:13:38.934Z,2.50
2019-05-14T21:16:10.853Z,2.80
2019-05-14T21:18:41.297Z,2.50
2019-05-14T21:21:11.556Z,3.17
2019-05-14T21:23:43.363Z,2.50
2019-05-14T21:26:14.076Z,2.33
2019-05-14T21:28:45.127Z,3.33
2019-05-14T21:31:15.252Z,2.70
2019-05-14T21:33:45.914Z,2.87
2019-05-14T21:36:19.093Z,2.60
2019-05-14T21:38:49.118Z,3.33
2019-05-14T21:41:20.547Z,2.67
2019-05-14T21:43:50.824Z,2.40
2019-05-14T21:46:21.536Z,2.53
2019-05-14T21:48:53.289Z,2.10
2019-05-14T21:51:23.643Z,2.67
2019-05-14T21:53:54.089Z,2.27
2019-05-14T21:56:25.088Z,2.73
2019-05-14T21:58:55.228Z,2.70
2019-05-14T22:01:27.703Z,2.93
2019-05-14T22:03:59.314Z,3.60
2019-05-14T22:06:30.446Z,2.50
2019-05-14T22:09:01.259Z,2.57
2019-05-14T22:11:31.413Z,2.27
2019-05-14T22:14:02.060Z,2.80
2019-05-14T22:16:33.319Z,2.40
2019-05-14T22:19:04.016Z,2.60
2019-05-14T22:21:34.161Z,2.80
2019-05-14T22:24:04.184Z,2.30
2019-05-14T22:26:34.313Z,2.40
2019-05-14T22:29:04.409Z,2.53
2019-05-14T22:31:35.092Z,2.67
2019-05-14T22:34:05.277Z,2.40
2019-05-14T22:36:35.552Z,2.60
2019-05-14T22:39:07.046Z,2.20
2019-05-14T22:41:38.322Z,2.30
2019-05-14T22:44:09.515Z,2.00
2019-05-14T22:46:40.272Z,2.90
2019-05-14T22:49:10.606Z,2.53
2019-05-14T22:51:40.864Z,2.37
2019-05-14T22:54:11.392Z,2.40
2019-05-14T22:56:41.541Z,3.07
2019-05-14T22:59:11.872Z,2.30
2019-05-14T23:01:42.380Z,2.73
2019-05-14T23:04:12.540Z,2.40
2019-05-14T23:06:42.628Z,2.60
2019-05-14T23:09:16.245Z,2.37
2019-05-14T23:11:45.224Z,2.60
2019-05-14T23:14:15.618Z,2.57
2019-05-14T23:16:45.923Z,1.90
2019-05-14T23:19:16.023Z,2.40
2019-05-14T23:21:48.328Z,2.13
2019-05-14T23:24:19.073Z,3.30
2019-05-14T23:26:49.444Z,2.43
2019-05-14T23:29:19.960Z,5.20
2019-05-14T23:31:50.436Z,10.20
2019-05-14T23:34:20.828Z,7.43
2019-05-14T23:36:50.964Z,6.63
2019-05-14T23:39:21.805Z,3.23
2019-05-14T23:41:52.823Z,4.93
2019-05-14T23:44:22.924Z,3.10
2019-05-14T23:46:53.002Z,3.57
2019-05-14T23:49:23.278Z,2.80
2019-05-14T23:51:53.382Z,3.60
2019-05-14T23:54:23.602Z,2.83
2019-05-14T23:56:53.793Z,2.50
2019-05-14T23:59:24.819Z,2.63
